createdAt,value
2022-08-21T00:00:43.938Z,19.69
2022-08-21T00:05:50.504Z,19.68
2022-08-21T00:10:52.469Z,19.69
2022-08-21T00:15:54.389Z,19.70
2022-08-21T00:20:56.181Z,19.66
2022-08-21T00:25:58.034Z,19.61
2022-08-21T00:31:00.176Z,19.62
2022-08-21T00:36:02.092Z,19.60
2022-08-21T00:41:36.423Z,19.57
2022-08-21T00:46:28.809Z,19.59
2022-08-21T00:51:38.907Z,19.60
2022-08-21T00:56:41.131Z,19.58
2022-08-21T01:01:45.142Z,19.60
2022-08-21T01:06:46.940Z,19.57
2022-08-21T01:11:48.852Z,19.56
2022-08-21T01:16:53.585Z,19.51
2022-08-21T01:21:56.033Z,19.48
2022-08-21T01:26:59.553Z,19.46
2022-08-21T01:32:07.112Z,19.44
2022-08-21T01:37:09.500Z,19.43
2022-08-21T01:42:11.237Z,19.45
2022-08-21T01:47:15.175Z,19.44
2022-08-21T01:52:20.194Z,19.47
2022-08-21T01:57:22.636Z,19.53
2022-08-21T02:02:28.238Z,19.57
2022-08-21T02:07:37.220Z,19.57
2022-08-21T02:12:38.975Z,19.57
2022-08-21T02:17:47.330Z,19.61
2022-08-21T02:22:50.531Z,19.61
2022-08-21T02:27:52.726Z,19.61
2022-08-21T02:32:55.001Z,19.60
2022-08-21T02:38:00.740Z,19.54
2022-08-21T02:43:04.227Z,19.51
2022-08-21T02:48:13.057Z,19.54
2022-08-21T02:53:17.552Z,19.53
2022-08-21T02:58:25.917Z,19.50
2022-08-21T03:03:30.081Z,19.52
2022-08-21T03:08:31.921Z,19.51
2022-08-21T03:13:33.613Z,19.50
2022-08-21T03:18:36.374Z,19.48
2022-08-21T03:23:40.931Z,19.51
2022-08-21T03:28:43.205Z,19.50
2022-08-21T03:33:45.068Z,19.49
2022-08-21T03:38:46.907Z,19.49
2022-08-21T03:43:48.756Z,19.49
2022-08-21T03:48:50.868Z,19.46
2022-08-21T03:53:52.945Z,19.45
2022-08-21T03:58:54.589Z,19.45
2022-08-21T04:03:56.616Z,19.43
2022-08-21T04:08:58.315Z,19.40
2022-08-21T04:13:59.965Z,19.43
2022-08-21T04:19:02.649Z,19.40
2022-08-21T04:24:06.321Z,19.44
2022-08-21T04:29:08.276Z,19.43
2022-08-21T04:34:12.307Z,19.41
2022-08-21T04:39:14.186Z,19.42
2022-08-21T04:44:16.165Z,19.42
2022-08-21T04:49:18.354Z,19.48
2022-08-21T04:54:23.725Z,19.62
2022-08-21T04:59:29.212Z,19.75
2022-08-21T05:04:34.111Z,19.93
2022-08-21T05:09:36.437Z,20.43
2022-08-21T05:14:38.191Z,20.75
2022-08-21T05:19:40.624Z,21.11
2022-08-21T05:24:42.465Z,21.39
2022-08-21T05:29:44.436Z,21.51
2022-08-21T05:34:46.085Z,21.83
2022-08-21T05:40:11.800Z,21.88
2022-08-21T05:45:10.073Z,21.87
2022-08-21T05:50:12.267Z,22.02
2022-08-21T05:55:14.040Z,22.11
2022-08-21T06:00:17.788Z,21.97
2022-08-21T06:05:24.979Z,21.77
2022-08-21T06:10:39.075Z,21.59
2022-08-21T06:15:41.323Z,21.47
2022-08-21T06:20:43.517Z,21.33
2022-08-21T06:25:45.212Z,21.34
2022-08-21T06:30:46.928Z,21.49
2022-08-21T06:35:49.321Z,21.72
2022-08-21T06:40:51.321Z,21.96
2022-08-21T06:45:54.296Z,22.15
2022-08-21T06:50:56.964Z,22.20
2022-08-21T06:55:58.626Z,22.02
2022-08-21T07:01:01.161Z,21.89
2022-08-21T07:06:04.813Z,21.81
2022-08-21T07:11:23.385Z,21.81
2022-08-21T07:16:25.652Z,21.83
2022-08-21T07:21:27.697Z,21.94
2022-08-21T07:26:29.340Z,22.05
2022-08-21T07:31:31.224Z,22.13
2022-08-21T07:36:33.321Z,22.11
2022-08-21T07:41:36.813Z,22.04
2022-08-21T07:46:38.446Z,22.27
2022-08-21T07:51:40.448Z,22.59
2022-08-21T07:56:42.260Z,22.81
2022-08-21T08:01:44.093Z,22.87
2022-08-21T08:06:46.472Z,23.00
2022-08-21T08:11:48.401Z,23.06
2022-08-21T08:16:50.385Z,22.89
2022-08-21T08:21:52.059Z,22.79
2022-08-21T08:26:55.165Z,22.76
2022-08-21T08:31:57.001Z,22.62
2022-08-21T08:37:02.165Z,22.51
2022-08-21T08:42:33.081Z,22.48
2022-08-21T08:47:40.426Z,22.37
2022-08-21T08:52:49.676Z,22.62
2022-08-21T08:57:52.326Z,22.71
2022-08-21T09:02:58.189Z,22.65
2022-08-21T09:08:22.208Z,22.57
2022-08-21T09:13:48.563Z,22.64
2022-08-21T09:19:25.162Z,22.49
2022-08-21T09:25:12.021Z,22.28
2022-08-21T09:30:14.134Z,22.27
2022-08-21T09:35:19.500Z,22.39
2022-08-21T09:40:36.918Z,22.43
2022-08-21T09:45:40.560Z,22.68
2022-08-21T09:50:43.886Z,22.65
2022-08-21T09:56:24.238Z,22.53
2022-08-21T10:01:27.252Z,22.37
2022-08-21T10:06:29.537Z,22.25
2022-08-21T10:11:34.223Z,22.10
2022-08-21T10:16:53.676Z,22.04
2022-08-21T10:22:08.557Z,22.09
2022-08-21T10:27:48.206Z,22.10
2022-08-21T10:32:59.810Z,22.10
2022-08-21T10:38:50.317Z,22.06
2022-08-21T10:43:51.236Z,22.01
2022-08-21T10:49:00.514Z,21.98
2022-08-21T10:54:23.496Z,22.02
2022-08-21T11:00:05.283Z,21.99
2022-08-21T11:05:13.911Z,22.00
2022-08-21T11:10:19.914Z,21.95
2022-08-21T11:15:36.036Z,21.93
2022-08-21T11:20:47.789Z,22.13
2022-08-21T11:26:02.613Z,22.22
2022-08-21T11:31:13.469Z,22.45
2022-08-21T11:37:08.450Z,22.58
2022-08-21T11:42:32.134Z,22.57
2022-08-21T11:47:53.686Z,22.57
2022-08-21T11:53:04.605Z,22.61
2022-08-21T11:58:17.689Z,22.48
2022-08-21T12:03:39.077Z,22.39
2022-08-21T12:08:47.152Z,22.41
2022-08-21T12:14:14.626Z,22.41
2022-08-21T12:19:25.528Z,22.43
2022-08-21T12:24:27.871Z,22.38
2022-08-21T12:29:32.760Z,22.29
2022-08-21T12:34:47.350Z,22.12
2022-08-21T12:39:53.723Z,22.04
2022-08-21T12:45:12.177Z,22.01
2022-08-21T12:50:37.536Z,22.13
2022-08-21T12:55:43.985Z,22.29
2022-08-21T13:00:51.412Z,22.21
2022-08-21T13:05:54.672Z,22.14
2022-08-21T13:11:13.798Z,22.15
2022-08-21T13:16:26.123Z,22.02
2022-08-21T13:21:34.870Z,22.00
2022-08-21T13:26:36.468Z,22.03
2022-08-21T13:31:43.352Z,22.10
2022-08-21T13:36:45.703Z,22.08
2022-08-21T13:41:51.285Z,21.91
2022-08-21T13:46:54.988Z,21.91
2022-08-21T13:51:56.845Z,21.84
2022-08-21T13:56:58.493Z,21.88
2022-08-21T14:02:09.430Z,21.82
2022-08-21T14:07:21.684Z,21.80
2022-08-21T14:12:42.210Z,21.77
2022-08-21T14:17:44.565Z,21.76
2022-08-21T14:22:48.273Z,21.75
2022-08-21T14:28:03.024Z,21.71
2022-08-21T14:33:14.372Z,21.68
2022-08-21T14:38:22.582Z,21.64
2022-08-21T14:43:27.290Z,21.63
2022-08-21T14:48:29.075Z,21.64
2022-08-21T14:53:30.704Z,21.64
2022-08-21T14:58:34.023Z,21.53
2022-08-21T15:03:36.583Z,21.61
2022-08-21T15:08:38.639Z,21.60
2022-08-21T15:13:41.219Z,21.60
2022-08-21T15:18:43.715Z,21.64
2022-08-21T15:23:45.594Z,21.58
2022-08-21T15:28:47.420Z,21.59
2022-08-21T15:33:49.108Z,21.61
2022-08-21T15:38:50.911Z,21.55
2022-08-21T15:43:54.326Z,21.57
2022-08-21T15:48:59.772Z,21.57
2022-08-21T15:54:01.757Z,21.61
2022-08-21T15:59:09.864Z,21.62
2022-08-21T16:04:16.363Z,21.63
2022-08-21T16:09:18.088Z,21.61
2022-08-21T16:14:19.943Z,21.61
2022-08-21T16:19:21.953Z,21.57
2022-08-21T16:24:23.629Z,21.58
2022-08-21T16:29:30.288Z,21.59
2022-08-21T16:34:32.192Z,21.64
2022-08-21T16:39:33.812Z,21.61
2022-08-21T16:44:35.580Z,21.63
2022-08-21T16:49:39.055Z,21.62
2022-08-21T16:54:43.421Z,21.60
2022-08-21T16:59:45.374Z,21.62
2022-08-21T17:04:47.012Z,21.62
2022-08-21T17:09:48.833Z,21.60
2022-08-21T17:14:50.689Z,21.57
2022-08-21T17:19:52.569Z,21.51
2022-08-21T17:24:54.422Z,21.49
2022-08-21T17:29:56.780Z,21.51
2022-08-21T17:34:58.905Z,21.50
2022-08-21T17:40:05.544Z,21.49
2022-08-21T17:45:11.309Z,21.48
2022-08-21T17:50:13.919Z,21.48
2022-08-21T17:55:17.266Z,21.48
2022-08-21T18:00:20.732Z,21.44
2022-08-21T18:05:22.608Z,21.45
2022-08-21T18:10:25.292Z,21.43
2022-08-21T18:15:27.050Z,21.44
2022-08-21T18:20:28.864Z,21.41
2022-08-21T18:25:30.831Z,21.40
2022-08-21T18:30:37.430Z,21.42
2022-08-21T18:35:39.717Z,21.39
2022-08-21T18:40:46.700Z,21.23
2022-08-21T18:45:48.496Z,21.04
2022-08-21T18:50:50.154Z,20.86
2022-08-21T18:55:52.300Z,20.45
2022-08-21T19:00:55.631Z,20.04
2022-08-21T19:05:57.593Z,19.95
2022-08-21T19:11:02.379Z,19.67
2022-08-21T19:16:05.769Z,19.52
2022-08-21T19:21:11.475Z,19.37
2022-08-21T19:26:13.572Z,19.09
2022-08-21T19:31:28.900Z,18.70
2022-08-21T19:36:32.477Z,18.32
2022-08-21T19:41:38.630Z,17.87
2022-08-21T19:46:44.254Z,17.89
2022-08-21T19:51:45.949Z,17.79
2022-08-21T19:56:48.620Z,17.78
2022-08-21T20:01:51.172Z,17.92
2022-08-21T20:06:53.193Z,18.05
2022-08-21T20:11:58.613Z,17.96
2022-08-21T20:17:08.477Z,18.03
2022-08-21T20:22:13.568Z,18.06
2022-08-21T20:27:21.936Z,18.04
2022-08-21T20:32:23.686Z,17.99
2022-08-21T20:42:50.988Z,17.93
2022-08-21T20:48:11.414Z,17.79
2022-08-21T20:53:43.650Z,17.74
2022-08-21T20:59:23.374Z,17.85
2022-08-21T21:04:35.062Z,17.91
2022-08-21T21:09:43.575Z,17.90
2022-08-21T21:14:48.652Z,17.91
2022-08-21T21:19:56.406Z,17.97
2022-08-21T21:25:07.213Z,18.05
2022-08-21T21:30:14.393Z,18.07
2022-08-21T21:35:32.494Z,18.09
2022-08-21T21:40:40.798Z,18.04
2022-08-21T21:45:53.497Z,18.01
2022-08-21T21:51:00.672Z,18.07
2022-08-21T21:56:29.412Z,18.10
2022-08-21T22:01:44.301Z,18.11
2022-08-21T22:07:11.919Z,18.10
2022-08-21T22:12:49.869Z,18.09
2022-08-21T22:18:08.705Z,18.06
2022-08-21T22:23:19.020Z,18.06
2022-08-21T22:28:26.979Z,18.03
2022-08-21T22:33:30.030Z,18.01
2022-08-21T22:38:36.925Z,17.98
2022-08-21T22:43:57.235Z,17.94
2022-08-21T22:49:07.583Z,17.91
2022-08-21T22:54:21.792Z,17.94
2022-08-21T22:59:26.816Z,17.92
2022-08-21T23:04:31.665Z,17.92
2022-08-21T23:09:47.256Z,17.86
2022-08-21T23:14:54.634Z,17.81
2022-08-21T23:20:10.270Z,17.76
2022-08-21T23:25:40.539Z,17.70
2022-08-21T23:31:00.489Z,17.64
2022-08-21T23:36:59.534Z,17.65
2022-08-21T23:42:33.472Z,17.66
2022-08-21T23:47:56.032Z,17.63
2022-08-21T23:53:38.447Z,17.66
2022-08-21T23:58:45.224Z,17.66
